sensor_id;sensor_type;location;lat;lon;timestamp;temperature;humidity
2993;DHT22;1506;48.932;9.478;2023-03-14T04:08:40;9.60;99.90
2993;DHT22;1506;48.932;9.478;2023-03-14T04:11:11;10.00;1.00
2993;DHT22;1506;48.932;9.478;2023-03-14T04:13:50;10.00;1.00
2993;DHT22;1506;48.932;9.478;2023-03-14T04:16:21;10.00;1.00
2993;DHT22;1506;48.932;9.478;2023-03-14T04:18:52;9.90;1.00
2993;DHT22;1506;48.932;9.478;2023-03-14T04:21:21;9.90;1.00
2993;DHT22;1506;48.932;9.478;2023-03-14T04:23:53;9.90;1.00
2993;DHT22;1506;48.932;9.478;2023-03-14T04:26:20;9.80;1.00
2993;DHT22;1506;48.932;9.478;2023-03-14T04:28:47;9.80;1.00
2993;DHT22;1506;48.932;9.478;2023-03-14T04:31:20;9.90;1.00
2993;DHT22;1506;48.932;9.478;2023-03-14T04:33:48;9.80;1.00
2993;DHT22;1506;48.932;9.478;2023-03-14T04:36:21;9.80;1.00
2993;DHT22;1506;48.932;9.478;2023-03-14T04:38:48;9.80;1.00
2993;DHT22;1506;48.932;9.478;2023-03-14T04:41:19;9.80;1.00
2993;DHT22;1506;48.932;9.478;2023-03-14T04:43:46;9.80;1.00
2993;DHT22;1506;48.932;9.478;2023-03-14T04:46:14;9.80;1.00
2993;DHT22;1506;48.932;9.478;2023-03-14T04:48:42;9.80;1.00
2993;DHT22;1506;48.932;9.478;2023-03-14T04:51:09;9.70;1.00
2993;DHT22;1506;48.932;9.478;2023-03-14T04:53:36;9.70;1.00
2993;DHT22;1506;48.932;9.478;2023-03-14T04:56:07;9.70;1.00
2993;DHT22;1506;48.932;9.478;2023-03-14T04:58:37;9.60;1.00
2993;DHT22;1506;48.932;9.478;2023-03-14T05:01:06;9.60;1.00
2993;DHT22;1506;48.932;9.478;2023-03-14T05:03:36;9.60;1.00
2993;DHT22;1506;48.932;9.478;2023-03-14T05:06:20;9.70;1.00
2993;DHT22;1506;48.932;9.478;2023-03-14T05:09:11;9.60;1.00
2993;DHT22;1506;48.932;9.478;2023-03-14T05:12:04;9.70;1.00
2993;DHT22;1506;48.932;9.478;2023-03-14T05:14:40;9.60;1.00
2993;DHT22;1506;48.932;9.478;2023-03-14T05:17:40;9.70;1.00
2993;DHT22;1506;48.932;9.478;2023-03-14T05:20:37;9.60;1.00
2993;DHT22;1506;48.932;9.478;2023-03-14T05:23:22;9.60;1.00
2993;DHT22;1506;48.932;9.478;2023-03-14T05:26:12;9.60;1.00
2993;DHT22;1506;48.932;9.478;2023-03-14T05:28:52;9.60;1.00
2993;DHT22;1506;48.932;9.478;2023-03-14T05:31:39;9.60;1.00
2993;DHT22;1506;48.932;9.478;2023-03-14T05:34:15;9.50;1.00
2993;DHT22;1506;48.932;9.478;2023-03-14T05:37:00;9.40;1.00
2993;DHT22;1506;48.932;9.478;2023-03-14T05:39:53;9.40;1.00
2993;DHT22;1506;48.932;9.478;2023-03-14T05:42:38;9.40;1.00
2993;DHT22;1506;48.932;9.478;2023-03-14T05:45:24;9.50;1.00
2993;DHT22;1506;48.932;9.478;2023-03-14T05:48:23;9.40;1.00
2993;DHT22;1506;48.932;9.478;2023-03-14T05:51:10;9.40;1.00
2993;DHT22;1506;48.932;9.478;2023-03-14T05:53:58;9.50;1.00
2993;DHT22;1506;48.932;9.478;2023-03-14T05:56:33;9.50;1.00
2993;DHT22;1506;48.932;9.478;2023-03-14T05:59:23;9.50;1.00
2993;DHT22;1506;48.932;9.478;2023-03-14T06:02:05;9.50;1.00
2993;DHT22;1506;48.932;9.478;2023-03-14T06:04:43;9.60;1.00
2993;DHT22;1506;48.932;9.478;2023-03-14T06:07:10;9.50;1.00
2993;DHT22;1506;48.932;9.478;2023-03-14T06:09:37;9.60;1.00
2993;DHT22;1506;48.932;9.478;2023-03-14T06:12:06;9.70;1.00
2993;DHT22;1506;48.932;9.478;2023-03-14T06:14:39;9.70;99.90
2993;DHT22;1506;48.932;9.478;2023-03-14T06:17:06;9.70;1.00
2993;DHT22;1506;48.932;9.478;2023-03-14T06:19:40;9.70;99.90
2993;DHT22;1506;48.932;9.478;2023-03-14T06:22:08;9.70;99.90
2993;DHT22;1506;48.932;9.478;2023-03-14T06:24:38;9.80;99.90
2993;DHT22;1506;48.932;9.478;2023-03-14T06:27:05;9.80;99.90
2993;DHT22;1506;48.932;9.478;2023-03-14T06:29:32;9.70;99.90
2993;DHT22;1506;48.932;9.478;2023-03-14T06:32:00;9.80;1.00
2993;DHT22;1506;48.932;9.478;2023-03-14T06:34:27;9.80;99.90
2993;DHT22;1506;48.932;9.478;2023-03-14T06:36:54;9.80;39.60
2993;DHT22;1506;48.932;9.478;2023-03-14T06:39:21;9.80;1.00
2993;DHT22;1506;48.932;9.478;2023-03-14T06:41:54;9.80;1.00
2993;DHT22;1506;48.932;9.478;2023-03-14T06:44:21;9.80;1.00
2993;DHT22;1506;48.932;9.478;2023-03-14T06:46:48;9.80;99.90
2993;DHT22;1506;48.932;9.478;2023-03-14T06:49:15;9.80;1.00
2993;DHT22;1506;48.932;9.478;2023-03-14T06:51:42;9.90;1.00
2993;DHT22;1506;48.932;9.478;2023-03-14T06:54:11;9.80;1.00
2993;DHT22;1506;48.932;9.478;2023-03-14T06:56:38;9.90;99.90
2993;DHT22;1506;48.932;9.478;2023-03-14T06:59:06;10.00;1.00
2993;DHT22;1506;48.932;9.478;2023-03-14T07:01:33;10.00;99.90
2993;DHT22;1506;48.932;9.478;2023-03-14T07:04:06;10.10;99.90
2993;DHT22;1506;48.932;9.478;2023-03-14T07:06:35;10.20;99.90
2993;DHT22;1506;48.932;9.478;2023-03-14T07:09:04;10.30;1.00
2993;DHT22;1506;48.932;9.478;2023-03-14T07:11:33;10.60;1.00
2993;DHT22;1506;48.932;9.478;2023-03-14T07:14:01;10.90;1.00
2993;DHT22;1506;48.932;9.478;2023-03-14T07:16:28;11.10;99.90
2993;DHT22;1506;48.932;9.478;2023-03-14T07:19:00;11.30;99.90
2993;DHT22;1506;48.932;9.478;2023-03-14T07:21:28;11.60;99.90
2993;DHT22;1506;48.932;9.478;2023-03-14T07:23:56;11.90;1.00
2993;DHT22;1506;48.932;9.478;2023-03-14T07:26:23;12.00;99.90
2993;DHT22;1506;48.932;9.478;2023-03-14T07:28:51;12.20;70.10
2993;DHT22;1506;48.932;9.478;2023-03-14T07:31:21;12.60;99.90
2993;DHT22;1506;48.932;9.478;2023-03-14T07:33:48;12.70;99.90
2993;DHT22;1506;48.932;9.478;2023-03-14T07:36:16;13.20;1.00
2993;DHT22;1506;48.932;9.478;2023-03-14T07:38:44;13.00;99.90
2993;DHT22;1506;48.932;9.478;2023-03-14T07:41:24;12.90;99.90
2993;DHT22;1506;48.932;9.478;2023-03-14T07:44:16;12.80;99.90
2993;DHT22;1506;48.932;9.478;2023-03-14T07:46:43;12.80;1.00
2993;DHT22;1506;48.932;9.478;2023-03-14T07:49:10;12.70;99.90
2993;DHT22;1506;48.932;9.478;2023-03-14T07:51:37;12.70;1.00
2993;DHT22;1506;48.932;9.478;2023-03-14T07:54:04;12.90;1.00
2993;DHT22;1506;48.932;9.478;2023-03-14T07:56:31;13.70;99.90
2993;DHT22;1506;48.932;9.478;2023-03-14T07:58:58;13.70;20.80
2993;DHT22;1506;48.932;9.478;2023-03-14T08:01:25;14.00;1.00
2993;DHT22;1506;48.932;9.478;2023-03-14T08:03:52;13.70;1.00
2993;DHT22;1506;48.932;9.478;2023-03-14T08:06:20;13.90;1.00
2993;DHT22;1506;48.932;9.478;2023-03-14T08:08:46;14.00;1.00
2993;DHT22;1506;48.932;9.478;2023-03-14T08:11:14;13.80;1.00
2993;DHT22;1506;48.932;9.478;2023-03-14T08:13:41;14.00;1.00
2993;DHT22;1506;48.932;9.478;2023-03-14T08:16:08;14.40;1.00
2993;DHT22;1506;48.932;9.478;2023-03-14T08:18:36;14.60;1.00
2993;DHT22;1506;48.932;9.478;2023-03-14T08:21:03;14.80;1.00
2993;DHT22;1506;48.932;9.478;2023-03-14T08:23:30;15.30;1.00
2993;DHT22;1506;48.932;9.478;2023-03-14T08:25:57;15.00;1.00
2993;DHT22;1506;48.932;9.478;2023-03-14T08:28:24;14.60;1.00
2993;DHT22;1506;48.932;9.478;2023-03-14T08:30:51;14.10;99.90
2993;DHT22;1506;48.932;9.478;2023-03-14T08:33:21;14.10;1.00
2993;DHT22;1506;48.932;9.478;2023-03-14T08:35:48;14.30;1.00
2993;DHT22;1506;48.932;9.478;2023-03-14T08:38:18;14.70;1.00
2993;DHT22;1506;48.932;9.478;2023-03-14T08:40:45;15.00;1.00
2993;DHT22;1506;48.932;9.478;2023-03-14T08:43:12;14.90;99.90
2993;DHT22;1506;48.932;9.478;2023-03-14T08:45:39;15.40;99.90
2993;DHT22;1506;48.932;9.478;2023-03-14T08:48:06;15.60;99.90
2993;DHT22;1506;48.932;9.478;2023-03-14T08:50:33;16.10;99.90
2993;DHT22;1506;48.932;9.478;2023-03-14T08:53:00;16.80;1.00
2993;DHT22;1506;48.932;9.478;2023-03-14T08:55:29;16.60;1.00
2993;DHT22;1506;48.932;9.478;2023-03-14T08:57:56;16.10;1.00
2993;DHT22;1506;48.932;9.478;2023-03-14T09:00:23;15.30;1.00
2993;DHT22;1506;48.932;9.478;2023-03-14T09:02:50;14.70;1.00
2993;DHT22;1506;48.932;9.478;2023-03-14T09:05:17;14.40;1.00
2993;DHT22;1506;48.932;9.478;2023-03-14T09:07:44;14.20;1.00
2993;DHT22;1506;48.932;9.478;2023-03-14T09:10:11;14.00;1.00
2993;DHT22;1506;48.932;9.478;2023-03-14T09:12:38;13.80;1.00
2993;DHT22;1506;48.932;9.478;2023-03-14T09:15:06;13.70;1.00
2993;DHT22;1506;48.932;9.478;2023-03-14T09:17:33;13.60;1.00
2993;DHT22;1506;48.932;9.478;2023-03-14T09:20:02;13.60;1.00
2993;DHT22;1506;48.932;9.478;2023-03-14T09:22:33;13.50;96.30
2993;DHT22;1506;48.932;9.478;2023-03-14T09:25:05;13.50;1.00
2993;DHT22;1506;48.932;9.478;2023-03-14T09:27:32;13.30;1.00
2993;DHT22;1506;48.932;9.478;2023-03-14T09:29:59;13.40;1.00
2993;DHT22;1506;48.932;9.478;2023-03-14T09:32:27;13.30;1.00
2993;DHT22;1506;48.932;9.478;2023-03-14T09:34:54;13.10;1.00
2993;DHT22;1506;48.932;9.478;2023-03-14T09:37:21;13.00;20.90
2993;DHT22;1506;48.932;9.478;2023-03-14T09:39:48;12.80;1.00
2993;DHT22;1506;48.932;9.478;2023-03-14T09:42:17;12.80;87.20
2993;DHT22;1506;48.932;9.478;2023-03-14T09:45:01;12.70;99.90
2993;DHT22;1506;48.932;9.478;2023-03-14T09:47:34;12.60;99.90
2993;DHT22;1506;48.932;9.478;2023-03-14T09:50:04;12.70;99.90
2993;DHT22;1506;48.932;9.478;2023-03-14T09:52:36;12.70;99.90
2993;DHT22;1506;48.932;9.478;2023-03-14T09:55:20;12.70;1.00
2993;DHT22;1506;48.932;9.478;2023-03-14T09:57:52;12.60;99.90
2993;DHT22;1506;48.932;9.478;2023-03-14T10:00:26;12.70;1.00
2993;DHT22;1506;48.932;9.478;2023-03-14T10:03:00;12.70;1.00
2993;DHT22;1506;48.932;9.478;2023-03-14T10:05:45;12.80;1.00
2993;DHT22;1506;48.932;9.478;2023-03-14T10:08:13;12.90;1.00
2993;DHT22;1506;48.932;9.478;2023-03-14T10:10:42;12.90;99.90
2993;DHT22;1506;48.932;9.478;2023-03-14T10:16:05;12.90;99.90
2993;DHT22;1506;48.932;9.478;2023-03-14T10:31:18;15.10;1.00
2993;DHT22;1506;48.932;9.478;2023-03-14T10:33:59;15.50;99.90
2993;DHT22;1506;48.932;9.478;2023-03-14T10:36:32;16.00;99.90
2993;DHT22;1506;48.932;9.478;2023-03-14T10:39:27;16.20;99.90
2993;DHT22;1506;48.932;9.478;2023-03-14T10:44:40;15.80;99.90
2993;DHT22;1506;48.932;9.478;2023-03-14T10:47:17;15.40;99.90
2993;DHT22;1506;48.932;9.478;2023-03-14T10:49:46;15.10;99.90
2993;DHT22;1506;48.932;9.478;2023-03-14T10:52:15;14.90;99.90
2993;DHT22;1506;48.932;9.478;2023-03-14T10:55:04;14.80;99.90
2993;DHT22;1506;48.932;9.478;2023-03-14T10:57:43;14.50;99.90
2993;DHT22;1506;48.932;9.478;2023-03-14T11:00:17;14.30;99.90
2993;DHT22;1506;48.932;9.478;2023-03-14T11:03:08;14.00;99.90
2993;DHT22;1506;48.932;9.478;2023-03-14T11:06:04;13.90;99.90
2993;DHT22;1506;48.932;9.478;2023-03-14T11:08:57;13.70;99.90
2993;DHT22;1506;48.932;9.478;2023-03-14T11:11:33;13.50;99.90
2993;DHT22;1506;48.932;9.478;2023-03-14T11:14:18;13.30;99.90
2993;DHT22;1506;48.932;9.478;2023-03-14T11:20:17;13.30;99.90
2993;DHT22;1506;48.932;9.478;2023-03-14T11:23:02;13.20;1.00
2993;DHT22;1506;48.932;9.478;2023-03-14T11:25:46;13.00;1.00
2993;DHT22;1506;48.932;9.478;2023-03-14T11:31:16;12.80;1.00
2993;DHT22;1506;48.932;9.478;2023-03-14T11:33:55;12.60;1.00
2993;DHT22;1506;48.932;9.478;2023-03-14T11:36:31;12.60;95.00
2993;DHT22;1506;48.932;9.478;2023-03-14T11:39:11;12.40;99.90
2993;DHT22;1506;48.932;9.478;2023-03-14T11:41:44;12.40;33.60
2993;DHT22;1506;48.932;9.478;2023-03-14T11:44:25;12.20;1.00
2993;DHT22;1506;48.932;9.478;2023-03-14T11:49:45;11.90;1.00
2993;DHT22;1506;48.932;9.478;2023-03-14T11:52:17;11.90;1.00
2993;DHT22;1506;48.932;9.478;2023-03-14T11:54:55;11.90;99.90
2993;DHT22;1506;48.932;9.478;2023-03-14T11:57:24;11.90;1.00
2993;DHT22;1506;48.932;9.478;2023-03-14T12:00:17;11.80;66.30
2993;DHT22;1506;48.932;9.478;2023-03-14T12:05:39;11.50;99.90
2993;DHT22;1506;48.932;9.478;2023-03-14T12:08:42;11.50;99.90
2993;DHT22;1506;48.932;9.478;2023-03-14T12:11:12;11.50;1.00
2993;DHT22;1506;48.932;9.478;2023-03-14T12:13:50;11.60;1.00
2993;DHT22;1506;48.932;9.478;2023-03-14T12:18:52;11.60;99.90
2993;DHT22;1506;48.932;9.478;2023-03-14T12:21:19;11.40;97.70
2993;DHT22;1506;48.932;9.478;2023-03-14T12:26:24;11.10;99.90
2993;DHT22;1506;48.932;9.478;2023-03-14T12:31:38;10.90;1.00
2993;DHT22;1506;48.932;9.478;2023-03-14T12:51:27;10.90;25.50
2993;DHT22;1506;48.932;9.478;2023-03-14T12:53:55;10.80;87.40
2993;DHT22;1506;48.932;9.478;2023-03-14T12:59:30;10.60;1.00
2993;DHT22;1506;48.932;9.478;2023-03-14T13:04:43;10.40;1.00
2993;DHT22;1506;48.932;9.478;2023-03-14T13:07:34;10.20;1.00
2993;DHT22;1506;48.932;9.478;2023-03-14T17:50:15;7.70;99.90
2993;DHT22;1506;48.932;9.478;2023-03-14T17:52:42;7.50;1.00
2993;DHT22;1506;48.932;9.478;2023-03-14T17:55:10;7.30;99.90
2993;DHT22;1506;48.932;9.478;2023-03-14T17:57:37;7.20;1.00
2993;DHT22;1506;48.932;9.478;2023-03-14T18:00:06;7.10;99.90
2993;DHT22;1506;48.932;9.478;2023-03-14T18:02:38;7.00;99.90
2993;DHT22;1506;48.932;9.478;2023-03-14T18:05:07;6.90;99.90
2993;DHT22;1506;48.932;9.478;2023-03-14T18:07:35;6.90;99.90
2993;DHT22;1506;48.932;9.478;2023-03-14T18:10:04;6.80;1.00
2993;DHT22;1506;48.932;9.478;2023-03-14T18:12:32;6.80;1.00
2993;DHT22;1506;48.932;9.478;2023-03-14T18:14:59;6.80;1.00
2993;DHT22;1506;48.932;9.478;2023-03-14T18:17:26;6.80;99.90
2993;DHT22;1506;48.932;9.478;2023-03-14T18:19:53;6.80;1.00
2993;DHT22;1506;48.932;9.478;2023-03-14T18:22:22;6.80;99.90
2993;DHT22;1506;48.932;9.478;2023-03-14T18:24:50;6.80;25.60
2993;DHT22;1506;48.932;9.478;2023-03-14T18:27:17;6.90;1.00
2993;DHT22;1506;48.932;9.478;2023-03-14T18:29:44;6.90;99.90
2993;DHT22;1506;48.932;9.478;2023-03-14T18:32:11;6.90;99.90
2993;DHT22;1506;48.932;9.478;2023-03-14T18:34:38;6.90;1.00
2993;DHT22;1506;48.932;9.478;2023-03-14T18:37:05;6.90;71.60
2993;DHT22;1506;48.932;9.478;2023-03-14T18:39:32;6.90;1.00
2993;DHT22;1506;48.932;9.478;2023-03-14T18:42:00;6.90;66.50
2993;DHT22;1506;48.932;9.478;2023-03-14T18:44:27;6.80;1.00
2993;DHT22;1506;48.932;9.478;2023-03-14T18:46:54;6.80;99.90
2993;DHT22;1506;48.932;9.478;2023-03-14T18:49:21;6.80;1.00
2993;DHT22;1506;48.932;9.478;2023-03-14T18:51:48;6.70;99.90
2993;DHT22;1506;48.932;9.478;2023-03-14T18:54:16;6.60;99.90
2993;DHT22;1506;48.932;9.478;2023-03-14T18:56:43;6.60;1.00
2993;DHT22;1506;48.932;9.478;2023-03-14T18:59:11;6.50;99.90
2993;DHT22;1506;48.932;9.478;2023-03-14T19:01:38;6.50;1.00
2993;DHT22;1506;48.932;9.478;2023-03-14T19:04:05;6.40;1.00
2993;DHT22;1506;48.932;9.478;2023-03-14T19:06:36;6.40;1.00
2993;DHT22;1506;48.932;9.478;2023-03-14T19:09:04;6.30;1.00
2993;DHT22;1506;48.932;9.478;2023-03-14T19:11:35;6.30;73.00
2993;DHT22;1506;48.932;9.478;2023-03-14T19:14:02;6.30;99.90
2993;DHT22;1506;48.932;9.478;2023-03-14T19:16:29;6.30;99.90
2993;DHT22;1506;48.932;9.478;2023-03-14T19:18:56;6.30;99.90
2993;DHT22;1506;48.932;9.478;2023-03-14T19:21:32;6.30;1.00
2993;DHT22;1506;48.932;9.478;2023-03-14T19:24:01;6.20;1.00
2993;DHT22;1506;48.932;9.478;2023-03-14T19:26:29;6.30;1.00
2993;DHT22;1506;48.932;9.478;2023-03-14T19:28:57;6.30;99.90
2993;DHT22;1506;48.932;9.478;2023-03-14T19:31:25;6.30;99.90
2993;DHT22;1506;48.932;9.478;2023-03-14T19:33:53;6.40;1.00
2993;DHT22;1506;48.932;9.478;2023-03-14T19:36:23;6.40;99.90
2993;DHT22;1506;48.932;9.478;2023-03-14T19:38:51;6.40;1.00
2993;DHT22;1506;48.932;9.478;2023-03-14T19:41:21;6.40;1.00
2993;DHT22;1506;48.932;9.478;2023-03-14T19:43:50;6.40;99.90
2993;DHT22;1506;48.932;9.478;2023-03-14T19:46:17;6.40;1.00
2993;DHT22;1506;48.932;9.478;2023-03-14T19:48:45;6.40;1.00
2993;DHT22;1506;48.932;9.478;2023-03-14T19:51:13;6.40;99.90
2993;DHT22;1506;48.932;9.478;2023-03-14T19:53:42;6.40;1.00
2993;DHT22;1506;48.932;9.478;2023-03-14T19:56:10;6.40;99.90
2993;DHT22;1506;48.932;9.478;2023-03-14T19:58:38;6.40;6.50
2993;DHT22;1506;48.932;9.478;2023-03-14T20:01:07;6.40;99.90
2993;DHT22;1506;48.932;9.478;2023-03-14T20:03:35;6.40;99.90
2993;DHT22;1506;48.932;9.478;2023-03-14T20:06:10;6.40;99.90
2993;DHT22;1506;48.932;9.478;2023-03-14T20:08:38;6.40;1.00
2993;DHT22;1506;48.932;9.478;2023-03-14T20:11:07;6.40;1.00
2993;DHT22;1506;48.932;9.478;2023-03-14T20:13:34;6.40;1.00
2993;DHT22;1506;48.932;9.478;2023-03-14T20:16:06;6.40;1.00
2993;DHT22;1506;48.932;9.478;2023-03-14T20:18:36;6.50;1.00
2993;DHT22;1506;48.932;9.478;2023-03-14T20:21:08;6.50;1.00
2993;DHT22;1506;48.932;9.478;2023-03-14T20:23:38;6.40;1.00
2993;DHT22;1506;48.932;9.478;2023-03-14T20:26:05;6.40;76.00
2993;DHT22;1506;48.932;9.478;2023-03-14T20:28:32;6.50;99.90
2993;DHT22;1506;48.932;9.478;2023-03-14T20:30:59;6.40;1.00
2993;DHT22;1506;48.932;9.478;2023-03-14T20:33:27;6.40;47.20
2993;DHT22;1506;48.932;9.478;2023-03-14T20:35:58;6.40;99.90
2993;DHT22;1506;48.932;9.478;2023-03-14T20:38:26;6.30;99.90
2993;DHT22;1506;48.932;9.478;2023-03-14T20:40:57;6.20;1.00
2993;DHT22;1506;48.932;9.478;2023-03-14T20:43:26;6.10;1.00
2993;DHT22;1506;48.932;9.478;2023-03-14T20:45:55;6.10;1.00
2993;DHT22;1506;48.932;9.478;2023-03-14T20:48:24;6.00;1.00
2993;DHT22;1506;48.932;9.478;2023-03-14T20:50:52;6.00;1.00
2993;DHT22;1506;48.932;9.478;2023-03-14T20:53:20;6.00;1.00
2993;DHT22;1506;48.932;9.478;2023-03-14T20:55:49;6.00;1.00
2993;DHT22;1506;48.932;9.478;2023-03-14T20:58:16;5.90;1.00
2993;DHT22;1506;48.932;9.478;2023-03-14T21:00:49;5.80;1.00
2993;DHT22;1506;48.932;9.478;2023-03-14T21:03:18;5.80;5.00
2993;DHT22;1506;48.932;9.478;2023-03-14T21:05:46;5.80;7.90
2993;DHT22;1506;48.932;9.478;2023-03-14T21:08:19;5.80;17.00
2993;DHT22;1506;48.932;9.478;2023-03-14T21:10:52;5.80;19.50
2993;DHT22;1506;48.932;9.478;2023-03-14T21:13:20;5.70;18.40
2993;DHT22;1506;48.932;9.478;2023-03-14T21:15:47;5.80;30.50
2993;DHT22;1506;48.932;9.478;2023-03-14T21:18:15;5.80;39.90
2993;DHT22;1506;48.932;9.478;2023-03-14T21:20:42;5.90;53.10
2993;DHT22;1506;48.932;9.478;2023-03-14T21:23:10;5.80;88.50
2993;DHT22;1506;48.932;9.478;2023-03-14T21:25:38;5.60;99.90
2993;DHT22;1506;48.932;9.478;2023-03-14T21:28:08;5.30;99.90
2993;DHT22;1506;48.932;9.478;2023-03-14T21:30:35;5.10;99.90
2993;DHT22;1506;48.932;9.478;2023-03-14T21:33:02;5.00;99.90
2993;DHT22;1506;48.932;9.478;2023-03-14T21:35:29;4.90;99.90
2993;DHT22;1506;48.932;9.478;2023-03-14T21:37:56;4.70;99.90
2993;DHT22;1506;48.932;9.478;2023-03-14T21:40:23;4.70;99.90
2993;DHT22;1506;48.932;9.478;2023-03-14T21:42:51;4.60;99.90
2993;DHT22;1506;48.932;9.478;2023-03-14T21:45:24;4.40;99.90
2993;DHT22;1506;48.932;9.478;2023-03-14T21:47:53;4.20;99.90
2993;DHT22;1506;48.932;9.478;2023-03-14T21:50:22;4.10;99.90
2993;DHT22;1506;48.932;9.478;2023-03-14T21:52:51;4.20;99.90
2993;DHT22;1506;48.932;9.478;2023-03-14T21:55:23;4.00;99.90
2993;DHT22;1506;48.932;9.478;2023-03-14T21:57:52;4.00;99.90
2993;DHT22;1506;48.932;9.478;2023-03-14T22:00:21;3.90;99.90
2993;DHT22;1506;48.932;9.478;2023-03-14T22:02:50;3.90;99.90
2993;DHT22;1506;48.932;9.478;2023-03-14T22:05:41;3.90;99.90
2993;DHT22;1506;48.932;9.478;2023-03-14T22:08:10;4.00;99.90
2993;DHT22;1506;48.932;9.478;2023-03-14T22:10:45;4.10;99.90
2993;DHT22;1506;48.932;9.478;2023-03-14T22:13:14;4.10;99.90
2993;DHT22;1506;48.932;9.478;2023-03-14T22:15:42;4.20;99.90
2993;DHT22;1506;48.932;9.478;2023-03-14T22:18:12;4.30;99.90
2993;DHT22;1506;48.932;9.478;2023-03-14T22:20:41;4.50;99.90
2993;DHT22;1506;48.932;9.478;2023-03-14T22:23:09;4.50;99.90
2993;DHT22;1506;48.932;9.478;2023-03-14T22:25:41;4.60;99.90
2993;DHT22;1506;48.932;9.478;2023-03-14T22:28:09;4.60;99.90
2993;DHT22;1506;48.932;9.478;2023-03-14T22:30:37;4.70;99.90
2993;DHT22;1506;48.932;9.478;2023-03-14T22:33:04;4.50;99.90
2993;DHT22;1506;48.932;9.478;2023-03-14T22:35:31;4.40;99.90
2993;DHT22;1506;48.932;9.478;2023-03-14T22:37:59;4.20;99.90
2993;DHT22;1506;48.932;9.478;2023-03-14T22:40:26;4.10;99.90
2993;DHT22;1506;48.932;9.478;2023-03-14T22:42:53;4.20;99.90
2993;DHT22;1506;48.932;9.478;2023-03-14T22:45:20;4.20;99.90
2993;DHT22;1506;48.932;9.478;2023-03-14T22:47:47;4.40;99.90
2993;DHT22;1506;48.932;9.478;2023-03-14T22:50:14;4.40;99.90
2993;DHT22;1506;48.932;9.478;2023-03-14T22:52:41;4.50;99.90
2993;DHT22;1506;48.932;9.478;2023-03-14T22:55:09;4.50;99.90
2993;DHT22;1506;48.932;9.478;2023-03-14T22:57:36;4.40;99.90
2993;DHT22;1506;48.932;9.478;2023-03-14T23:00:04;4.20;99.90
2993;DHT22;1506;48.932;9.478;2023-03-14T23:02:38;4.00;99.90
2993;DHT22;1506;48.932;9.478;2023-03-14T23:05:06;3.90;99.90
2993;DHT22;1506;48.932;9.478;2023-03-14T23:07:34;3.70;99.90
2993;DHT22;1506;48.932;9.478;2023-03-14T23:10:01;3.60;99.90
2993;DHT22;1506;48.932;9.478;2023-03-14T23:12:28;3.60;99.90
2993;DHT22;1506;48.932;9.478;2023-03-14T23:14:55;3.50;99.90
2993;DHT22;1506;48.932;9.478;2023-03-14T23:17:22;3.40;99.90
2993;DHT22;1506;48.932;9.478;2023-03-14T23:19:52;3.30;99.90
2993;DHT22;1506;48.932;9.478;2023-03-14T23:22:19;3.50;99.90
2993;DHT22;1506;48.932;9.478;2023-03-14T23:24:46;3.40;99.90
2993;DHT22;1506;48.932;9.478;2023-03-14T23:27:17;3.30;99.90
2993;DHT22;1506;48.932;9.478;2023-03-14T23:29:45;3.30;99.90
2993;DHT22;1506;48.932;9.478;2023-03-14T23:32:12;3.10;99.90
2993;DHT22;1506;48.932;9.478;2023-03-14T23:34:41;3.10;99.90
2993;DHT22;1506;48.932;9.478;2023-03-14T23:37:09;3.00;99.90
2993;DHT22;1506;48.932;9.478;2023-03-14T23:39:43;3.10;99.90
2993;DHT22;1506;48.932;9.478;2023-03-14T23:42:10;3.00;99.90
2993;DHT22;1506;48.932;9.478;2023-03-14T23:44:38;3.00;99.90
2993;DHT22;1506;48.932;9.478;2023-03-14T23:47:05;3.00;99.90
2993;DHT22;1506;48.932;9.478;2023-03-14T23:49:33;2.90;99.90
2993;DHT22;1506;48.932;9.478;2023-03-14T23:51:59;2.90;99.90
2993;DHT22;1506;48.932;9.478;2023-03-14T23:54:26;2.90;99.90
2993;DHT22;1506;48.932;9.478;2023-03-14T23:56:53;2.90;99.90
2993;DHT22;1506;48.932;9.478;2023-03-14T23:59:20;2.90;99.90
